Otagawa — JD3046 — position and weather

sailwx.info

Track history (hours):
 
Tides and Currents Weather Stations Pressure Air Temp Water Temp Dewpoint Dewpoint Depression Visibility Wind Speed Wind Dir Waves Ship Positions

Otagawa

Last reported at 2015-Jul-06 17:24 UTC. Time now 2015-Jul-08 00:03 UTC.
Position N 35°01' E 139°28'.

Length 70 m; draft 4 m.

Type: Cargo ship. MMSI: 431001328.

Date/timePositionNaut miles runAvg speedWind from/ knotsBaromVisibWave heightAir tempDewpointWater temp
2015-Jul-06 17:24N 35°01' E 139°28'1011.5
2015-Jul-06 16:33N 35°06' E 139°38'1211.9
2015-Jul-06 15:33N 35°16' E 139°46'9 9.4
2015-Jul-06 14:34N 35°24' E 139°41'0 0.3
2015-Jul-06 13:34N 35°24' E 139°41'1 0.9
2015-Jul-06 12:33N 35°23' E 139°40'1 0.7
2015-Jul-06 11:34N 35°23' E 139°41'3 3.1
2015-Jul-06 10:33N 35°26' E 139°41'1 0.8
2015-Jul-06 09:34N 35°26' E 139°42'0 0.5
2015-Jul-06 08:33N 35°26' E 139°42'0 0.0
2015-Jul-06 07:33N 35°26' E 139°42'0 0.0
2015-Jul-06 06:33N 35°26' E 139°42'0 0.1
2015-Jul-06 05:33N 35°26' E 139°42'0 0.1
2015-Jul-06 04:33N 35°26' E 139°42'0 0.0
2015-Jul-06 03:33N 35°26' E 139°42'0 0.0
2015-Jul-06 02:33N 35°26' E 139°42'0 0.0
2015-Jul-06 01:33N 35°26' E 139°42'0 0.0
2015-Jul-06 00:30N 35°26' E 139°42'0 0.0
2015-Jul-05 23:33N 35°26' E 139°42'0 0.0
2015-Jul-05 22:33N 35°26' E 139°42'0 0.0
2015-Jul-05 21:33N 35°26' E 139°42'0 0.0
2015-Jul-05 20:33N 35°26' E 139°42'1 1.3
2015-Jul-05 19:33N 35°25' E 139°43'1010.0
2015-Jul-05 18:34N 35°15' E 139°47'10 9.9
2015-Jul-05 17:33N 35°06' E 139°44'241 6.7
2015-Jul-04 05:23N 34°05' E 135°00'1111.9
2015-Jul-04 04:29N 34°16' E 134°59'1111.3
2015-Jul-04 03:33N 34°25' E 135°05'1111.0
2015-Jul-04 02:33N 34°33' E 135°14'8 7.8
2015-Jul-04 01:33N 34°41' E 135°17'3 2.7
2015-Jul-04 00:32N 34°40' E 135°14'0 0.0
2015-Jul-03 23:33N 34°40' E 135°14'1 0.9
2015-Jul-03 22:10N 34°39' E 135°15'0 0.0
2015-Jul-03 21:10N 34°39' E 135°15'0 0.0
2015-Jul-03 20:28N 34°39' E 135°15'0 0.0
2015-Jul-03 19:28N 34°39' E 135°15'0 0.0
2015-Jul-03 18:28N 34°39' E 135°15'0 0.0
2015-Jul-03 17:28N 34°39' E 135°15'0 0.1
2015-Jul-03 16:28N 34°39' E 135°15'0 0.0
2015-Jul-03 15:28N 34°39' E 135°15'4 4.6
2015-Jul-03 14:33N 34°35' E 135°16'1211.5
2015-Jul-03 13:33N 34°25' E 135°07'1111.3
2015-Jul-03 12:33N 34°16' E 134°59'1212.2
2015-Jul-03 11:33N 34°04' E 135°01'227 8.3
2015-Jul-02 08:20N 35°00' E 139°28'810.1
2015-Jul-02 07:33N 35°04' E 139°36'10 9.8
2015-Jul-02 06:34N 35°11' E 139°45'9 8.6
2015-Jul-02 05:34N 35°19' E 139°43'5 5.1
2015-Jul-02 04:33N 35°24' E 139°41'1 1.0
2015-Jul-02 03:34N 35°23' E 139°40'0 0.0
2015-Jul-02 02:34N 35°23' E 139°40'0 0.0
2015-Jul-02 01:33N 35°23' E 139°40'2 1.7
2015-Jul-02 00:33N 35°24' E 139°42'2 2.3
2015-Jul-01 23:34N 35°26' E 139°41'9 8.8
2015-Jul-01 22:33N 35°31' E 139°50'6 6.4
2015-Jul-01 21:33N 35°37' E 139°46'0 0.0
2015-Jul-01 20:33N 35°37' E 139°46'0 0.0
2015-Jul-01 19:33N 35°37' E 139°46'0 0.0
2015-Jul-01 18:30N 35°37' E 139°46'0 0.0
2015-Jul-01 17:30N 35°37' E 139°46'0 0.0
2015-Jul-01 16:33N 35°37' E 139°46'0 0.0
2015-Jul-01 15:33N 35°37' E 139°46'0 0.0
2015-Jul-01 14:33N 35°37' E 139°46'0 0.0
2015-Jul-01 13:33N 35°37' E 139°46'0 0.0
2015-Jul-01 12:27N 35°37' E 139°46'0 0.0
2015-Jul-01 11:27N 35°37' E 139°46'0 0.0
2015-Jul-01 10:34N 35°37' E 139°46'0 0.0
2015-Jul-01 09:34N 35°37' E 139°46'0 0.0
2015-Jul-01 08:34N 35°37' E 139°46'0 0.0
2015-Jul-01 07:34N 35°37' E 139°46'0 0.0
2015-Jul-01 06:34N 35°37' E 139°46'1 1.1
2015-Jul-01 05:34N 35°36' E 139°47'8 8.4
2015-Jul-01 04:34N 35°28' E 139°50'1111.1
2015-Jul-01 03:33N 35°17' E 139°45'1110.8
2015-Jul-01 02:34N 35°07' E 139°45'1111.2
2015-Jul-01 01:32N 35°00' E 139°34'52 5.0
2015-Jun-30 15:13N 35°02' E 138°31'52 6.7
2015-Jun-30 07:33N 35°04' E 139°33'1110.7
2015-Jun-30 06:33N 35°10' E 139°44'9 9.1
2015-Jun-30 05:33N 35°19' E 139°43'8 7.4
2015-Jun-30 04:32N 35°26' E 139°41'0 0.1
2015-Jun-30 03:32N 35°26' E 139°41'0 0.0
2015-Jun-30 02:32N 35°26' E 139°41'0 0.0
2015-Jun-30 01:32N 35°26' E 139°41'0 0.0
2015-Jun-30 00:32N 35°26' E 139°41'0 0.0
2015-Jun-29 23:33N 35°26' E 139°41'3 2.9
2015-Jun-29 22:34N 35°29' E 139°39'0 0.0
2015-Jun-29 21:34N 35°29' E 139°39'0 0.0
2015-Jun-29 20:34N 35°29' E 139°39'0 0.0
2015-Jun-29 19:34N 35°29' E 139°39'0 0.0
2015-Jun-29 18:34N 35°29' E 139°39'0 0.0
2015-Jun-29 17:34N 35°29' E 139°39'0 0.0
2015-Jun-29 16:33N 35°29' E 139°39'0 0.0
2015-Jun-29 15:33N 35°29' E 139°39'0 0.0
2015-Jun-29 14:34N 35°29' E 139°39'0 0.0
2015-Jun-29 13:34N 35°29' E 139°39'0 0.0
2015-Jun-29 12:34N 35°29' E 139°39'0 0.0
2015-Jun-29 11:34N 35°29' E 139°39'0 0.0
2015-Jun-29 10:33N 35°29' E 139°39'0 0.0
2015-Jun-29 09:34N 35°29' E 139°39'0 0.0
2015-Jun-29 08:34N 35°29' E 139°39'0 0.0
2015-Jun-29 07:34N 35°29' E 139°39'0 0.0
2015-Jun-29 06:34N 35°29' E 139°39'0 0.0
2015-Jun-29 05:34N 35°29' E 139°39'0 0.0
2015-Jun-29 04:34N 35°29' E 139°39'3 3.1
2015-Jun-29 03:34N 35°27' E 139°42'1 1.2
2015-Jun-29 02:34N 35°25' E 139°42'0 0.0
2015-Jun-29 01:34N 35°25' E 139°42'6 5.8
2015-Jun-29 00:33N 35°20' E 139°43'9 9.5
2015-Jun-28 23:33N 35°10' E 139°46'1110.8
2015-Jun-28 22:33N 34°60' E 139°44'1310.0
2015-Jun-28 21:16N 34°52' E 139°56'811.6
2015-Jun-28 20:33N 34°57' E 140°04'2611.7
2015-Jun-28 18:18N 35°14' E 140°30'1111.2
2015-Jun-28 17:21N 35°22' E 140°38'3 0.1
2015-Jun-26 21:23N 35°19' E 140°35'911.0
2015-Jun-26 20:31N 35°12' E 140°28'1210.9
2015-Jun-26 19:24N 35°04' E 140°17'910.3
2015-Jun-26 18:33N 34°59' E 140°08'  
Track history (hours):
 
Tides and Currents Weather Stations Pressure Air Temp Water Temp Dewpoint Dewpoint Depression Visibility Wind Speed Wind Dir Waves Ship Positions

Otagawa

Last reported at 2015-Jul-06 17:24 UTC. Time now 2015-Jul-08 00:03 UTC.
Position N 35°01' E 139°28'.

Length 70 m; draft 4 m.

Type: Cargo ship. MMSI: 431001328.

Date/timePositionNaut miles runAvg speedWind from/ knotsBaromVisibWave heightAir tempDewpointWater temp
2015-Jul-06 17:24N 35°01' E 139°28'1011.5
2015-Jul-06 16:33N 35°06' E 139°38'1211.9
2015-Jul-06 15:33N 35°16' E 139°46'9 9.4
2015-Jul-06 14:34N 35°24' E 139°41'0 0.3
2015-Jul-06 13:34N 35°24' E 139°41'1 0.9
2015-Jul-06 12:33N 35°23' E 139°40'1 0.7
2015-Jul-06 11:34N 35°23' E 139°41'3 3.1
2015-Jul-06 10:33N 35°26' E 139°41'1 0.8
2015-Jul-06 09:34N 35°26' E 139°42'0 0.5
2015-Jul-06 08:33N 35°26' E 139°42'0 0.0
2015-Jul-06 07:33N 35°26' E 139°42'0 0.0
2015-Jul-06 06:33N 35°26' E 139°42'0 0.1
2015-Jul-06 05:33N 35°26' E 139°42'0 0.1
2015-Jul-06 04:33N 35°26' E 139°42'0 0.0
2015-Jul-06 03:33N 35°26' E 139°42'0 0.0
2015-Jul-06 02:33N 35°26' E 139°42'0 0.0
2015-Jul-06 01:33N 35°26' E 139°42'0 0.0
2015-Jul-06 00:30N 35°26' E 139°42'0 0.0
2015-Jul-05 23:33N 35°26' E 139°42'0 0.0
2015-Jul-05 22:33N 35°26' E 139°42'0 0.0
2015-Jul-05 21:33N 35°26' E 139°42'0 0.0
2015-Jul-05 20:33N 35°26' E 139°42'1 1.3
2015-Jul-05 19:33N 35°25' E 139°43'1010.0
2015-Jul-05 18:34N 35°15' E 139°47'10 9.9
2015-Jul-05 17:33N 35°06' E 139°44'241 6.7
2015-Jul-04 05:23N 34°05' E 135°00'1111.9
2015-Jul-04 04:29N 34°16' E 134°59'1111.3
2015-Jul-04 03:33N 34°25' E 135°05'1111.0
2015-Jul-04 02:33N 34°33' E 135°14'8 7.8
2015-Jul-04 01:33N 34°41' E 135°17'3 2.7
2015-Jul-04 00:32N 34°40' E 135°14'0 0.0
2015-Jul-03 23:33N 34°40' E 135°14'1 0.9
2015-Jul-03 22:10N 34°39' E 135°15'0 0.0
2015-Jul-03 21:10N 34°39' E 135°15'0 0.0
2015-Jul-03 20:28N 34°39' E 135°15'0 0.0
2015-Jul-03 19:28N 34°39' E 135°15'0 0.0
2015-Jul-03 18:28N 34°39' E 135°15'0 0.0
2015-Jul-03 17:28N 34°39' E 135°15'0 0.1
2015-Jul-03 16:28N 34°39' E 135°15'0 0.0
2015-Jul-03 15:28N 34°39' E 135°15'4 4.6
2015-Jul-03 14:33N 34°35' E 135°16'1211.5
2015-Jul-03 13:33N 34°25' E 135°07'1111.3
2015-Jul-03 12:33N 34°16' E 134°59'1212.2
2015-Jul-03 11:33N 34°04' E 135°01'227 8.3
2015-Jul-02 08:20N 35°00' E 139°28'810.1
2015-Jul-02 07:33N 35°04' E 139°36'10 9.8
2015-Jul-02 06:34N 35°11' E 139°45'9 8.6
2015-Jul-02 05:34N 35°19' E 139°43'5 5.1
2015-Jul-02 04:33N 35°24' E 139°41'1 1.0
2015-Jul-02 03:34N 35°23' E 139°40'0 0.0
2015-Jul-02 02:34N 35°23' E 139°40'0 0.0
2015-Jul-02 01:33N 35°23' E 139°40'2 1.7
2015-Jul-02 00:33N 35°24' E 139°42'2 2.3
2015-Jul-01 23:34N 35°26' E 139°41'9 8.8
2015-Jul-01 22:33N 35°31' E 139°50'6 6.4
2015-Jul-01 21:33N 35°37' E 139°46'0 0.0
2015-Jul-01 20:33N 35°37' E 139°46'0 0.0
2015-Jul-01 19:33N 35°37' E 139°46'0 0.0
2015-Jul-01 18:30N 35°37' E 139°46'0 0.0
2015-Jul-01 17:30N 35°37' E 139°46'0 0.0
2015-Jul-01 16:33N 35°37' E 139°46'0 0.0
2015-Jul-01 15:33N 35°37' E 139°46'0 0.0
2015-Jul-01 14:33N 35°37' E 139°46'0 0.0
2015-Jul-01 13:33N 35°37' E 139°46'0 0.0
2015-Jul-01 12:27N 35°37' E 139°46'0 0.0
2015-Jul-01 11:27N 35°37' E 139°46'0 0.0
2015-Jul-01 10:34N 35°37' E 139°46'0 0.0
2015-Jul-01 09:34N 35°37' E 139°46'0 0.0
2015-Jul-01 08:34N 35°37' E 139°46'0 0.0
2015-Jul-01 07:34N 35°37' E 139°46'0 0.0
2015-Jul-01 06:34N 35°37' E 139°46'1 1.1
2015-Jul-01 05:34N 35°36' E 139°47'8 8.4
2015-Jul-01 04:34N 35°28' E 139°50'1111.1
2015-Jul-01 03:33N 35°17' E 139°45'1110.8
2015-Jul-01 02:34N 35°07' E 139°45'1111.2
2015-Jul-01 01:32N 35°00' E 139°34'52 5.0
2015-Jun-30 15:13N 35°02' E 138°31'52 6.7
2015-Jun-30 07:33N 35°04' E 139°33'1110.7
2015-Jun-30 06:33N 35°10' E 139°44'9 9.1
2015-Jun-30 05:33N 35°19' E 139°43'8 7.4
2015-Jun-30 04:32N 35°26' E 139°41'0 0.1
2015-Jun-30 03:32N 35°26' E 139°41'0 0.0
2015-Jun-30 02:32N 35°26' E 139°41'0 0.0
2015-Jun-30 01:32N 35°26' E 139°41'0 0.0
2015-Jun-30 00:32N 35°26' E 139°41'0 0.0
2015-Jun-29 23:33N 35°26' E 139°41'3 2.9
2015-Jun-29 22:34N 35°29' E 139°39'0 0.0
2015-Jun-29 21:34N 35°29' E 139°39'0 0.0
2015-Jun-29 20:34N 35°29' E 139°39'0 0.0
2015-Jun-29 19:34N 35°29' E 139°39'0 0.0
2015-Jun-29 18:34N 35°29' E 139°39'0 0.0
2015-Jun-29 17:34N 35°29' E 139°39'0 0.0
2015-Jun-29 16:33N 35°29' E 139°39'0 0.0
2015-Jun-29 15:33N 35°29' E 139°39'0 0.0
2015-Jun-29 14:34N 35°29' E 139°39'0 0.0
2015-Jun-29 13:34N 35°29' E 139°39'0 0.0
2015-Jun-29 12:34N 35°29' E 139°39'0 0.0
2015-Jun-29 11:34N 35°29' E 139°39'0 0.0
2015-Jun-29 10:33N 35°29' E 139°39'0 0.0
2015-Jun-29 09:34N 35°29' E 139°39'0 0.0
2015-Jun-29 08:34N 35°29' E 139°39'0 0.0
2015-Jun-29 07:34N 35°29' E 139°39'0 0.0
2015-Jun-29 06:34N 35°29' E 139°39'0 0.0
2015-Jun-29 05:34N 35°29' E 139°39'0 0.0
2015-Jun-29 04:34N 35°29' E 139°39'3 3.1
2015-Jun-29 03:34N 35°27' E 139°42'1 1.2
2015-Jun-29 02:34N 35°25' E 139°42'0 0.0
2015-Jun-29 01:34N 35°25' E 139°42'6 5.8
2015-Jun-29 00:33N 35°20' E 139°43'9 9.5
2015-Jun-28 23:33N 35°10' E 139°46'1110.8
2015-Jun-28 22:33N 34°60' E 139°44'1310.0
2015-Jun-28 21:16N 34°52' E 139°56'811.6
2015-Jun-28 20:33N 34°57' E 140°04'2611.7
2015-Jun-28 18:18N 35°14' E 140°30'1111.2
2015-Jun-28 17:21N 35°22' E 140°38'3 0.1
2015-Jun-26 21:23N 35°19' E 140°35'911.0
2015-Jun-26 20:31N 35°12' E 140°28'1210.9
2015-Jun-26 19:24N 35°04' E 140°17'910.3
2015-Jun-26 18:33N 34°59' E 140°08'  

Dump ship's entire track history